createdAt,value
2023-11-16T00:01:45.854Z,93.07
2023-11-16T00:04:14.686Z,92.44
2023-11-16T00:06:44.814Z,93.01
2023-11-16T00:09:13.965Z,92.61
2023-11-16T00:11:43.471Z,93.32
2023-11-16T00:14:12.149Z,93.01
2023-11-16T00:16:42.475Z,93.08
2023-11-16T00:19:11.012Z,93.45
2023-11-16T00:21:39.675Z,93.51
2023-11-16T00:24:12.146Z,93.63
2023-11-16T00:26:41.444Z,93.54
2023-11-16T00:29:10.360Z,93.11
2023-11-16T00:31:39.108Z,93.93
2023-11-16T00:34:07.955Z,94.66
2023-11-16T00:36:39.880Z,94.18
2023-11-16T00:39:11.476Z,94.41
2023-11-16T00:41:40.213Z,94.49
2023-11-16T00:44:09.459Z,94.39
2023-11-16T00:46:40.358Z,94.07
2023-11-16T00:49:09.501Z,94.15
2023-11-16T00:51:38.551Z,93.92
2023-11-16T00:54:07.517Z,93.26
2023-11-16T00:56:38.450Z,93.20
2023-11-16T00:59:07.603Z,93.50
2023-11-16T01:01:36.263Z,93.84
2023-11-16T01:04:05.655Z,93.73
2023-11-16T01:06:34.468Z,93.86
2023-11-16T01:09:07.736Z,93.10
2023-11-16T01:11:40.777Z,93.19
2023-11-16T01:14:10.679Z,93.67
2023-11-16T01:16:43.406Z,93.87
2023-11-16T01:19:14.149Z,93.93
2023-11-16T01:21:45.858Z,93.86
2023-11-16T01:24:14.565Z,94.06
2023-11-16T01:26:44.828Z,94.08
2023-11-16T01:29:19.633Z,93.89
2023-11-16T01:31:54.865Z,94.02
2023-11-16T01:34:25.347Z,93.63
2023-11-16T01:36:55.074Z,93.63
2023-11-16T01:39:24.444Z,93.65
2023-11-16T01:41:54.859Z,93.69
2023-11-16T01:44:23.629Z,93.23
2023-11-16T01:46:52.917Z,93.14
2023-11-16T01:49:21.515Z,92.79
2023-11-16T01:51:55.213Z,92.31
2023-11-16T01:54:23.983Z,91.99
2023-11-16T01:56:55.093Z,91.40
2023-11-16T01:59:24.260Z,90.95
2023-11-16T02:01:52.549Z,90.72
2023-11-16T02:04:22.861Z,90.44
2023-11-16T02:06:53.023Z,90.18
2023-11-16T02:09:22.651Z,90.21
2023-11-16T02:11:52.149Z,90.15
2023-11-16T02:14:22.135Z,89.16
2023-11-16T02:16:51.345Z,89.35
2023-11-16T02:19:30.667Z,89.99
2023-11-16T02:22:00.537Z,90.01
2023-11-16T02:24:32.399Z,89.35
2023-11-16T02:27:02.014Z,90.23
2023-11-16T02:29:30.549Z,89.93
2023-11-16T02:31:59.572Z,90.01
2023-11-16T02:34:28.042Z,89.96
2023-11-16T02:36:56.670Z,90.36
2023-11-16T02:39:25.363Z,90.23
2023-11-16T02:41:57.278Z,90.80
2023-11-16T02:44:25.874Z,91.31
2023-11-16T02:46:55.593Z,91.90
2023-11-16T02:49:24.516Z,92.62
2023-11-16T02:51:53.158Z,92.65
2023-11-16T02:54:21.757Z,92.73
2023-11-16T02:56:51.139Z,92.89
2023-11-16T02:59:21.396Z,92.76
2023-11-16T03:01:49.981Z,93.47
2023-11-16T03:04:18.908Z,93.22
2023-11-16T03:06:48.293Z,93.96
2023-11-16T03:09:18.003Z,93.78
2023-11-16T03:11:47.742Z,94.17
2023-11-16T03:14:16.628Z,94.05
2023-11-16T03:16:50.942Z,94.29
2023-11-16T03:19:19.739Z,94.84
2023-11-16T03:21:48.397Z,94.72
2023-11-16T03:24:16.976Z,93.77
2023-11-16T03:26:46.436Z,94.48
2023-11-16T03:29:16.639Z,94.35
2023-11-16T03:31:46.184Z,94.26
2023-11-16T03:34:16.514Z,93.89
2023-11-16T03:36:46.411Z,93.61
2023-11-16T03:39:15.102Z,93.79
2023-11-16T03:41:43.728Z,93.59
2023-11-16T03:44:12.468Z,94.13
2023-11-16T03:46:42.266Z,94.19
2023-11-16T03:49:12.973Z,93.62
2023-11-16T03:51:43.084Z,93.69
2023-11-16T03:54:11.784Z,92.89
2023-11-16T03:56:40.329Z,93.40
2023-11-16T03:59:09.017Z,93.11
2023-11-16T04:01:38.105Z,92.53
2023-11-16T04:04:09.280Z,92.87
2023-11-16T04:06:38.124Z,93.05
2023-11-16T04:09:08.808Z,92.46
2023-11-16T04:11:41.795Z,92.84
2023-11-16T04:14:10.204Z,93.55
2023-11-16T04:16:40.313Z,92.76
2023-11-16T04:19:08.815Z,92.85
2023-11-16T04:21:38.069Z,92.76
2023-11-16T04:24:12.766Z,93.09
2023-11-16T04:26:41.480Z,92.68
2023-11-16T04:29:13.088Z,92.35
2023-11-16T04:31:41.609Z,92.67
2023-11-16T04:34:10.342Z,92.34
2023-11-16T04:36:39.052Z,92.43
2023-11-16T04:39:10.548Z,92.37
2023-11-16T04:41:39.708Z,92.81
2023-11-16T04:44:09.500Z,92.05
2023-11-16T04:46:38.127Z,91.92
2023-11-16T04:49:08.454Z,91.79
2023-11-16T04:51:37.057Z,91.66
2023-11-16T04:54:06.292Z,91.14
2023-11-16T04:56:37.798Z,91.37
2023-11-16T04:59:07.251Z,91.29
2023-11-16T05:01:35.940Z,90.73
2023-11-16T05:04:05.215Z,91.05
2023-11-16T05:06:33.940Z,91.50
2023-11-16T05:09:02.644Z,90.88
2023-11-16T05:11:31.407Z,91.15
2023-11-16T05:14:01.086Z,91.21
2023-11-16T05:16:30.406Z,91.43
2023-11-16T05:18:59.061Z,91.12
2023-11-16T05:21:27.783Z,90.47
2023-11-16T05:23:56.722Z,90.60
2023-11-16T05:26:26.984Z,90.40
2023-11-16T05:28:55.317Z,89.47
2023-11-16T05:31:25.453Z,89.68
2023-11-16T05:33:54.794Z,89.59
2023-11-16T05:36:23.605Z,89.62
2023-11-16T05:38:52.310Z,89.21
2023-11-16T05:41:21.944Z,88.89
2023-11-16T05:43:50.568Z,89.11
2023-11-16T05:46:19.336Z,88.77
2023-11-16T05:48:50.312Z,88.50
2023-11-16T05:51:18.807Z,88.44
2023-11-16T05:53:47.373Z,88.06
2023-11-16T05:56:16.044Z,88.49
2023-11-16T05:58:44.499Z,88.57
2023-11-16T06:01:14.636Z,88.88
2023-11-16T06:03:43.176Z,88.87
2023-11-16T06:06:13.181Z,88.57
2023-11-16T06:08:41.824Z,89.17
2023-11-16T06:11:10.494Z,89.08
2023-11-16T06:13:38.946Z,88.46
2023-11-16T06:16:08.479Z,88.43
2023-11-16T06:18:38.272Z,87.77
2023-11-16T06:21:07.901Z,88.01
2023-11-16T06:23:38.138Z,88.29
2023-11-16T06:26:07.264Z,88.30
2023-11-16T06:28:36.344Z,88.15
2023-11-16T06:31:06.214Z,88.08
2023-11-16T06:33:35.224Z,87.81
2023-11-16T06:36:04.207Z,88.15
2023-11-16T06:38:32.993Z,88.69
2023-11-16T06:41:02.717Z,88.58
2023-11-16T06:43:31.283Z,88.82
2023-11-16T06:46:01.625Z,88.90
2023-11-16T06:48:32.162Z,89.34
2023-11-16T06:51:02.131Z,88.83
2023-11-16T06:53:30.640Z,89.86
2023-11-16T06:55:59.035Z,89.90
2023-11-16T06:58:29.008Z,90.59
2023-11-16T07:00:57.837Z,90.62
2023-11-16T07:03:27.255Z,90.75
2023-11-16T07:05:55.989Z,91.02
2023-11-16T07:08:24.577Z,90.39
2023-11-16T07:10:53.528Z,90.63
2023-11-16T07:13:24.423Z,90.79
2023-11-16T07:15:54.483Z,90.17
2023-11-16T07:18:23.118Z,90.21
2023-11-16T07:20:52.500Z,90.35
2023-11-16T07:23:21.614Z,89.71
2023-11-16T07:25:50.960Z,89.14
2023-11-16T07:28:21.162Z,89.02
2023-11-16T07:30:51.254Z,89.13
2023-11-16T07:33:23.475Z,89.04
2023-11-16T07:35:53.056Z,89.04
2023-11-16T07:38:21.746Z,88.68
2023-11-16T07:40:53.901Z,89.37
2023-11-16T07:43:22.986Z,89.04
2023-11-16T07:45:51.883Z,89.04
2023-11-16T07:48:22.114Z,88.94
2023-11-16T07:50:50.777Z,89.05
2023-11-16T07:53:19.350Z,89.39
2023-11-16T07:55:50.318Z,89.50
2023-11-16T07:58:19.052Z,89.65
2023-11-16T08:00:57.285Z,89.15
2023-11-16T08:03:47.899Z,89.43
2023-11-16T08:06:16.702Z,89.58
2023-11-16T08:08:46.845Z,89.29
2023-11-16T08:11:16.591Z,88.85
2023-11-16T08:13:46.791Z,88.97
2023-11-16T08:16:19.756Z,88.55
2023-11-16T08:18:50.183Z,88.15
2023-11-16T08:21:19.154Z,88.17
2023-11-16T08:23:52.260Z,87.91
2023-11-16T08:26:21.684Z,88.12
2023-11-16T08:28:51.395Z,87.64
2023-11-16T08:31:20.203Z,87.82
2023-11-16T08:33:50.205Z,87.67
2023-11-16T08:36:21.923Z,88.06
2023-11-16T08:38:51.702Z,87.73
2023-11-16T08:41:20.353Z,87.45
2023-11-16T08:43:51.747Z,87.80
2023-11-16T08:46:26.403Z,87.84
2023-11-16T08:48:57.441Z,87.98
2023-11-16T08:51:26.378Z,87.64
2023-11-16T08:53:58.415Z,87.43
2023-11-16T08:56:38.961Z,88.08
2023-11-16T08:59:12.669Z,87.04
2023-11-16T09:01:41.355Z,87.71
2023-11-16T09:04:14.930Z,87.12
2023-11-16T09:06:44.872Z,86.93
2023-11-16T09:09:37.578Z,86.81
2023-11-16T09:12:14.532Z,86.65
2023-11-16T09:14:43.935Z,86.18
2023-11-16T09:17:19.577Z,85.11
2023-11-16T09:19:51.848Z,85.38
2023-11-16T09:22:20.518Z,86.12
2023-11-16T09:24:51.456Z,85.85
2023-11-16T09:27:20.013Z,86.64
2023-11-16T09:29:53.308Z,86.57
2023-11-16T09:32:22.542Z,86.49
2023-11-16T09:35:02.631Z,86.50
2023-11-16T09:37:39.143Z,86.59
2023-11-16T09:40:10.416Z,85.87
2023-11-16T09:42:40.853Z,85.96
2023-11-16T09:45:10.884Z,86.46
2023-11-16T09:47:44.075Z,86.12
2023-11-16T09:50:15.801Z,85.86
2023-11-16T09:52:46.055Z,86.00
2023-11-16T09:55:18.557Z,84.84
2023-11-16T09:57:47.406Z,85.55
2023-11-16T10:00:17.707Z,84.71
2023-11-16T10:02:48.973Z,85.43
2023-11-16T10:05:28.382Z,84.97
2023-11-16T10:07:58.552Z,84.61
2023-11-16T10:10:31.051Z,84.92
2023-11-16T10:12:59.756Z,85.17
2023-11-16T10:15:28.848Z,84.97
2023-11-16T10:17:57.687Z,84.95
2023-11-16T10:20:27.504Z,85.13
2023-11-16T10:22:56.655Z,83.84
2023-11-16T10:25:25.704Z,83.87
2023-11-16T10:27:54.312Z,83.65
2023-11-16T10:30:23.623Z,82.56
2023-11-16T10:32:53.145Z,83.21
2023-11-16T10:35:25.173Z,82.03
2023-11-16T10:37:57.049Z,82.03
2023-11-16T10:40:26.350Z,81.40
2023-11-16T10:42:57.173Z,82.20
2023-11-16T10:45:25.892Z,81.27
2023-11-16T10:47:54.915Z,80.99
2023-11-16T10:50:23.637Z,80.74
2023-11-16T10:52:55.458Z,80.83
2023-11-16T10:55:27.967Z,80.64
2023-11-16T10:58:03.314Z,80.74
2023-11-16T11:00:36.166Z,80.76
2023-11-16T11:03:08.082Z,80.31
2023-11-16T11:05:39.155Z,80.32
2023-11-16T11:08:11.253Z,80.13
2023-11-16T11:10:42.887Z,79.38
2023-11-16T11:13:12.508Z,79.68
2023-11-16T11:15:41.618Z,78.90
2023-11-16T11:18:10.841Z,78.07
2023-11-16T11:20:45.480Z,78.87
2023-11-16T11:23:17.481Z,78.33
2023-11-16T11:25:46.963Z,78.65
2023-11-16T11:28:16.781Z,76.73
2023-11-16T11:30:53.615Z,77.26
2023-11-16T11:33:29.424Z,77.10
2023-11-16T11:35:58.332Z,78.04
2023-11-16T11:38:31.248Z,77.68
2023-11-16T11:41:00.742Z,77.65
2023-11-16T11:43:30.692Z,77.75
2023-11-16T11:45:59.540Z,76.00
2023-11-16T11:48:28.594Z,74.99
2023-11-16T11:50:58.704Z,74.86
2023-11-16T11:53:30.894Z,75.39
2023-11-16T11:56:01.099Z,74.71
2023-11-16T11:58:29.708Z,73.92
2023-11-16T12:00:58.610Z,74.81
2023-11-16T12:03:29.233Z,74.83
2023-11-16T12:06:00.367Z,74.18
2023-11-16T12:08:50.573Z,73.88
2023-11-16T12:11:38.369Z,71.95
2023-11-16T12:14:10.714Z,72.61
2023-11-16T12:16:40.167Z,72.92
2023-11-16T12:19:10.808Z,74.49
2023-11-16T12:21:46.697Z,74.77
2023-11-16T12:24:21.642Z,75.51
2023-11-16T12:26:50.252Z,76.28
2023-11-16T12:29:24.300Z,76.41
2023-11-16T12:31:53.116Z,76.53
2023-11-16T12:34:21.845Z,75.46
2023-11-16T12:36:51.003Z,75.69
2023-11-16T12:39:20.920Z,75.19
2023-11-16T12:41:49.646Z,74.52
2023-11-16T12:44:18.283Z,74.89
2023-11-16T12:46:48.377Z,75.92
2023-11-16T12:49:17.364Z,75.20
2023-11-16T12:51:45.884Z,75.67
2023-11-16T12:54:14.603Z,75.21
2023-11-16T12:56:44.988Z,75.77
2023-11-16T12:59:14.167Z,75.17
2023-11-16T13:01:42.679Z,75.67
2023-11-16T13:04:13.061Z,75.68
2023-11-16T13:06:42.028Z,75.15
2023-11-16T13:09:12.155Z,75.31
2023-11-16T13:11:40.745Z,75.08
2023-11-16T13:14:11.033Z,74.93
2023-11-16T13:16:40.523Z,74.66
2023-11-16T13:19:09.403Z,75.26
2023-11-16T13:21:37.884Z,75.82
2023-11-16T13:24:06.997Z,74.96
2023-11-16T13:26:36.683Z,76.32
2023-11-16T13:29:07.100Z,76.65
2023-11-16T13:31:37.021Z,76.48
2023-11-16T13:34:05.907Z,76.56
2023-11-16T13:36:34.540Z,76.72
2023-11-16T13:39:05.557Z,76.86
2023-11-16T13:41:34.434Z,76.64
2023-11-16T13:44:04.483Z,77.81
2023-11-16T13:46:33.289Z,76.92
2023-11-16T13:49:03.517Z,76.63
2023-11-16T13:51:32.211Z,77.28
2023-11-16T13:54:00.973Z,77.27
2023-11-16T13:56:30.147Z,76.44
2023-11-16T13:59:01.030Z,76.23
2023-11-16T14:01:30.338Z,77.46
2023-11-16T14:03:59.259Z,77.25
2023-11-16T14:06:29.568Z,77.88
2023-11-16T14:08:58.512Z,77.91
2023-11-16T14:11:27.404Z,77.41
2023-11-16T14:13:56.051Z,78.09
2023-11-16T14:16:24.574Z,78.24
2023-11-16T14:18:53.367Z,79.16
2023-11-16T14:21:22.107Z,78.51
2023-11-16T14:23:53.321Z,79.03
2023-11-16T14:26:22.420Z,79.65
2023-11-16T14:28:51.092Z,79.23
2023-11-16T14:31:19.923Z,78.94
2023-11-16T14:33:49.514Z,79.39
2023-11-16T14:36:18.178Z,79.66
2023-11-16T14:38:47.134Z,79.88
2023-11-16T14:41:17.209Z,79.55
2023-11-16T14:43:46.461Z,78.72
2023-11-16T14:46:16.048Z,79.77
2023-11-16T14:48:44.867Z,79.37
2023-11-16T14:51:19.089Z,79.34
2023-11-16T14:53:54.814Z,79.36
2023-11-16T14:56:30.186Z,80.14
2023-11-16T14:59:00.211Z,79.98
2023-11-16T15:01:30.376Z,79.96
2023-11-16T15:04:02.322Z,79.90
2023-11-16T15:06:31.538Z,79.99
2023-11-16T15:09:00.544Z,80.57
2023-11-16T15:11:31.790Z,80.12
2023-11-16T15:14:03.994Z,80.62
2023-11-16T15:16:45.302Z,80.56
2023-11-16T15:19:16.857Z,81.07
2023-11-16T15:21:47.489Z,81.21
2023-11-16T15:24:16.917Z,82.72
2023-11-16T15:26:50.528Z,81.00
2023-11-16T15:29:21.293Z,82.44
2023-11-16T15:31:52.182Z,83.49
2023-11-16T15:34:21.274Z,82.35
2023-11-16T15:36:52.818Z,81.01
2023-11-16T15:39:22.799Z,80.12
2023-11-16T15:41:53.337Z,80.05
2023-11-16T15:44:21.903Z,80.49
2023-11-16T15:46:50.631Z,81.20
2023-11-16T15:49:19.209Z,81.26
2023-11-16T15:51:47.701Z,80.77
2023-11-16T15:54:16.987Z,81.52
2023-11-16T15:56:49.602Z,81.80
2023-11-16T15:59:21.937Z,82.18
2023-11-16T16:01:53.413Z,82.77
2023-11-16T16:04:22.205Z,82.29
2023-11-16T16:06:51.223Z,81.92
2023-11-16T16:09:20.847Z,82.61
2023-11-16T16:12:08.326Z,83.28
2023-11-16T16:14:39.873Z,82.90
2023-11-16T16:17:09.589Z,83.25
2023-11-16T16:19:38.733Z,83.04
2023-11-16T16:22:11.040Z,83.02
2023-11-16T16:24:40.579Z,82.62
2023-11-16T16:27:09.989Z,83.13
2023-11-16T16:29:40.163Z,81.16
2023-11-16T16:32:10.458Z,81.60
2023-11-16T16:34:40.240Z,82.76
2023-11-16T16:37:08.958Z,83.34
2023-11-16T16:39:42.832Z,83.99
2023-11-16T16:42:18.829Z,83.93
2023-11-16T16:44:48.852Z,83.04
2023-11-16T16:47:18.995Z,83.56
2023-11-16T16:49:50.367Z,82.85
2023-11-16T16:52:20.879Z,83.52
2023-11-16T16:54:50.935Z,84.92
2023-11-16T16:57:22.482Z,85.28
2023-11-16T16:59:52.971Z,85.69
2023-11-16T17:02:21.775Z,85.21
2023-11-16T17:04:50.994Z,85.24
2023-11-16T17:07:19.856Z,86.51
2023-11-16T17:09:50.189Z,86.56
2023-11-16T17:12:21.711Z,87.71
2023-11-16T17:14:52.296Z,88.39
2023-11-16T17:17:23.579Z,89.02
2023-11-16T17:19:52.177Z,88.53
2023-11-16T17:22:23.657Z,88.74
2023-11-16T17:24:52.419Z,88.73
2023-11-16T17:27:21.046Z,88.36
2023-11-16T17:29:52.759Z,89.33
2023-11-16T17:32:21.528Z,88.80
2023-11-16T17:34:54.235Z,90.33
2023-11-16T17:37:23.542Z,90.35
2023-11-16T17:39:54.626Z,90.28
2023-11-16T17:42:23.585Z,89.95
2023-11-16T17:44:54.077Z,90.07
2023-11-16T17:47:22.761Z,90.69
2023-11-16T17:49:52.824Z,90.76
2023-11-16T17:52:21.587Z,90.87
2023-11-16T17:54:50.135Z,90.94
2023-11-16T17:57:18.793Z,90.84
2023-11-16T17:59:48.182Z,90.80
2023-11-16T18:02:16.790Z,90.41
2023-11-16T18:04:46.485Z,91.40
2023-11-16T18:07:17.402Z,90.86
2023-11-16T18:09:46.548Z,90.72
2023-11-16T18:12:15.954Z,90.89
2023-11-16T18:14:44.678Z,90.73
2023-11-16T18:17:13.490Z,90.86
2023-11-16T18:19:42.255Z,90.75
2023-11-16T18:22:11.095Z,90.06
2023-11-16T18:24:42.688Z,91.12
2023-11-16T18:27:12.090Z,91.02
2023-11-16T18:29:42.946Z,90.30
2023-11-16T18:32:12.410Z,90.79
2023-11-16T18:34:43.560Z,91.17
2023-11-16T18:37:13.673Z,91.24
2023-11-16T18:39:43.617Z,90.76
2023-11-16T18:42:12.332Z,91.54
2023-11-16T18:44:41.447Z,91.64
2023-11-16T18:47:10.268Z,91.41
2023-11-16T18:49:38.780Z,92.58
2023-11-16T18:52:09.465Z,92.31
2023-11-16T18:54:38.851Z,92.92
2023-11-16T18:57:08.635Z,92.72
2023-11-16T18:59:37.242Z,93.21
2023-11-16T19:02:06.826Z,93.42
2023-11-16T19:04:36.884Z,93.72
2023-11-16T19:07:06.140Z,93.30
2023-11-16T19:09:34.583Z,94.74
2023-11-16T19:12:04.101Z,94.83
2023-11-16T19:14:34.042Z,95.34
2023-11-16T19:17:02.489Z,95.30
2023-11-16T19:19:31.063Z,94.49
2023-11-16T19:22:08.446Z,95.79
2023-11-16T19:24:37.313Z,95.81
2023-11-16T19:27:06.507Z,95.69
2023-11-16T19:29:36.265Z,95.57
2023-11-16T19:32:07.551Z,95.85
2023-11-16T19:34:36.899Z,96.17
2023-11-16T19:37:06.805Z,96.42
2023-11-16T19:39:43.032Z,96.57
2023-11-16T19:42:14.544Z,96.41
2023-11-16T19:44:44.411Z,96.37
2023-11-16T19:47:22.779Z,97.52
2023-11-16T19:49:54.611Z,98.00
2023-11-16T19:52:25.006Z,97.18
2023-11-16T19:54:53.997Z,97.66
2023-11-16T19:57:22.566Z,98.37
2023-11-16T19:59:53.722Z,98.00
2023-11-16T20:02:22.301Z,99.31
2023-11-16T20:04:51.802Z,99.28
2023-11-16T20:07:21.737Z,99.76
2023-11-16T20:09:51.265Z,100.00
2023-11-16T20:12:20.483Z,100.00
2023-11-16T20:14:55.057Z,100.00
2023-11-16T20:17:27.246Z,100.00
2023-11-16T20:19:57.305Z,100.00
2023-11-16T20:22:26.623Z,100.00
2023-11-16T20:24:55.896Z,100.00
2023-11-16T20:27:24.992Z,100.00
2023-11-16T20:29:57.601Z,100.00
2023-11-16T20:32:27.695Z,100.00
2023-11-16T20:34:56.206Z,100.00
2023-11-16T20:37:25.139Z,100.00
2023-11-16T20:39:54.021Z,100.00
2023-11-16T20:42:23.600Z,100.00
2023-11-16T20:44:52.361Z,100.00
2023-11-16T20:47:22.354Z,100.00
2023-11-16T20:49:53.395Z,100.00
2023-11-16T20:52:22.226Z,100.00
2023-11-16T20:54:51.026Z,100.00
2023-11-16T20:57:23.234Z,100.00
2023-11-16T20:59:52.218Z,100.00
2023-11-16T21:02:20.722Z,100.00
2023-11-16T21:04:50.298Z,100.00
2023-11-16T21:07:20.203Z,100.00
2023-11-16T21:09:49.248Z,100.00
2023-11-16T21:12:17.688Z,100.00
2023-11-16T21:14:46.514Z,100.00
2023-11-16T21:17:17.155Z,100.00
2023-11-16T21:19:45.606Z,100.00
2023-11-16T21:22:14.051Z,100.00
2023-11-16T21:24:45.622Z,100.00
2023-11-16T21:27:14.844Z,100.00
2023-11-16T21:29:44.159Z,100.00
2023-11-16T21:32:13.087Z,100.00
2023-11-16T21:34:42.055Z,100.00
2023-11-16T21:37:11.006Z,100.00
2023-11-16T21:39:42.596Z,100.00
2023-11-16T21:42:12.779Z,100.00
2023-11-16T21:44:41.340Z,100.00
2023-11-16T21:47:11.013Z,100.00
2023-11-16T21:49:39.415Z,100.00
2023-11-16T21:52:07.820Z,100.00
2023-11-16T21:54:36.308Z,100.00
2023-11-16T21:57:06.080Z,100.00
2023-11-16T21:59:36.986Z,100.00
2023-11-16T22:02:06.433Z,100.00
2023-11-16T22:04:35.948Z,100.00
2023-11-16T22:07:05.730Z,100.00
2023-11-16T22:09:35.196Z,100.00
2023-11-16T22:12:04.651Z,100.00
2023-11-16T22:14:33.100Z,100.00
2023-11-16T22:17:05.358Z,100.00
2023-11-16T22:19:33.995Z,100.00
2023-11-16T22:22:02.543Z,100.00
2023-11-16T22:24:32.178Z,100.00
2023-11-16T22:27:00.560Z,100.00
2023-11-16T22:29:29.022Z,100.00
2023-11-16T22:31:58.258Z,100.00
2023-11-16T22:34:28.577Z,100.00
2023-11-16T22:36:57.049Z,100.00
2023-11-16T22:39:26.912Z,100.00
2023-11-16T22:41:55.328Z,100.00
2023-11-16T22:44:23.810Z,100.00
2023-11-16T22:46:54.080Z,100.00
2023-11-16T22:49:23.986Z,100.00
2023-11-16T22:51:53.957Z,100.00
2023-11-16T22:54:23.029Z,100.00
2023-11-16T22:56:51.955Z,100.00
2023-11-16T22:59:20.346Z,100.00
2023-11-16T23:01:50.735Z,100.00
2023-11-16T23:04:19.501Z,100.00
2023-11-16T23:06:49.591Z,100.00
2023-11-16T23:09:20.351Z,100.00
2023-11-16T23:11:48.815Z,100.00
2023-11-16T23:14:17.317Z,100.00
2023-11-16T23:16:46.619Z,100.00
2023-11-16T23:19:17.447Z,100.00
2023-11-16T23:21:46.518Z,100.00
2023-11-16T23:24:15.848Z,100.00
2023-11-16T23:26:46.413Z,100.00
2023-11-16T23:29:15.125Z,100.00
2023-11-16T23:31:43.958Z,100.00
2023-11-16T23:34:12.476Z,100.00
2023-11-16T23:36:40.953Z,100.00
2023-11-16T23:39:09.438Z,100.00
2023-11-16T23:41:40.962Z,100.00
2023-11-16T23:44:11.748Z,100.00
2023-11-16T23:46:40.175Z,100.00
2023-11-16T23:49:08.810Z,100.00
2023-11-16T23:51:37.405Z,100.00
2023-11-16T23:54:09.002Z,100.00
2023-11-16T23:56:37.586Z,100.00
2023-11-16T23:59:06.836Z,100.00
